^^
Your Local Weather - Clay, NY Station Historical Data
Daily Summary for July 22, 2017 Units:  English    Metric   Both
« Previous Day
Next Day »
Daily Weekly Monthly Yearly Custom
  High: Low: Average:
Temperature: 76.9 °F 61.6 °F 69.2 °F
Dew Point: 66.7 °F 58.0 °F 62.3 °F
Humidity: 91% 60% 79%
Wind Speed: 2.0mph 0.0mph 0.4mph
Wind Gust: 5.0mph - -
Wind- - South
Pressure: 29.87 in 29.74 in -
Precipitation: 0.00 in    
Historical Graphs
 
 
Tabular Data for July 22, 2017
Time Temperature Dew Point Pressure Wind Wind Speed Wind Gust Humidity Rainfall Rate (Hourly) solar
00:04 61.9 °F 58.3 °F 29.85 in Calm     88% 0.00 in 0 W/m2
00:10 62.0 °F 58.4 °F 29.85 in Calm     88% 0.00 in 0 W/m2
00:16 62.0 °F 58.4 °F 29.86 in Calm     88% 0.00 in 0 W/m2
00:22 61.8 °F 58.2 °F 29.86 in Calm     88% 0.00 in 0 W/m2
00:28 61.8 °F 58.2 °F 29.86 in Calm     88% 0.00 in 0 W/m2
00:34 61.8 °F 58.2 °F 29.86 in Calm     88% 0.00 in 0 W/m2
00:40 61.7 °F 58.4 °F 29.86 in Calm     89% 0.00 in 0 W/m2
00:46 61.6 °F 58.3 °F 29.86 in Calm     89% 0.00 in 0 W/m2
00:52 61.6 °F 58.3 °F 29.86 in Calm     89% 0.00 in 0 W/m2
00:58 61.8 °F 58.5 °F 29.86 in Calm     89% 0.00 in 0 W/m2
01:04 61.8 °F 58.5 °F 29.86 in Calm     89% 0.00 in 0 W/m2
01:10 62.0 °F 58.7 °F 29.87 in Calm     89% 0.00 in 0 W/m2
01:16 62.2 °F 58.9 °F 29.87 in Calm     89% 0.00 in 0 W/m2
01:22 62.4 °F 59.1 °F 29.87 in Calm     89% 0.00 in 0 W/m2
01:28 62.6 °F 59.0 °F 29.87 in Calm     88% 0.00 in 0 W/m2
01:34 62.8 °F 59.2 °F 29.87 in Calm   1.0 mph 88% 0.00 in 0 W/m2
01:40 63.2 °F 59.3 °F 29.87 in Calm     87% 0.00 in 0 W/m2
01:46 63.6 °F 59.3 °F 29.86 in Calm     86% 0.00 in 0 W/m2
01:52 64.0 °F 59.1 °F 29.86 in Calm   1.0 mph 84% 0.00 in 0 W/m2
01:58 64.3 °F 59.4 °F 29.86 in Calm   1.0 mph 84% 0.00 in 0 W/m2
02:04 64.8 °F 59.2 °F 29.86 in Calm   1.0 mph 82% 0.00 in 0 W/m2
02:10 65.2 °F 59.2 °F 29.86 in Calm   2.0 mph 81% 0.00 in 0 W/m2
02:16 65.9 °F 59.2 °F 29.86 in West 1.0 mph 3.0 mph 79% 0.00 in 0 W/m2
02:22 66.3 °F 59.2 °F 29.86 in West 1.0 mph 1.0 mph 78% 0.00 in 0 W/m2
02:28 66.5 °F 59.1 °F 29.86 in West 1.0 mph 1.0 mph 77% 0.00 in 0 W/m2
02:34 66.7 °F 59.3 °F 29.86 in West 1.0 mph 3.0 mph 77% 0.00 in 0 W/m2
02:40 66.7 °F 59.3 °F 29.86 in West 1.0 mph 1.0 mph 77% 0.00 in 0 W/m2
02:46 66.8 °F 59.4 °F 29.85 in Calm   1.0 mph 77% 0.00 in 0 W/m2
02:52 66.8 °F 59.4 °F 29.85 in Calm   1.0 mph 77% 0.00 in 0 W/m2
02:58 66.7 °F 59.3 °F 29.85 in Calm   1.0 mph 77% 0.00 in 0 W/m2
03:04 66.6 °F 59.2 °F 29.85 in Calm     77% 0.00 in 0 W/m2
03:10 66.5 °F 59.1 °F 29.85 in Calm     77% 0.00 in 0 W/m2
03:16 66.5 °F 59.1 °F 29.84 in Calm     77% 0.00 in 0 W/m2
03:22 66.5 °F 59.1 °F 29.84 in Calm     77% 0.00 in 0 W/m2
03:28 66.5 °F 59.1 °F 29.83 in Calm     77% 0.00 in 0 W/m2
03:34 66.3 °F 59.2 °F 29.83 in Calm     78% 0.00 in 0 W/m2
03:40 66.2 °F 60.2 °F 29.83 in Calm     81% 0.00 in 0 W/m2
03:46 65.7 °F 60.1 °F 29.83 in Calm     82% 0.00 in 0 W/m2
03:52 65.2 °F 59.9 °F 29.83 in Calm     83% 0.00 in 0 W/m2
03:58 64.9 °F 59.6 °F 29.82 in Calm     83% 0.00 in 0 W/m2
04:04 64.6 °F 59.3 °F 29.82 in Calm     83% 0.00 in 0 W/m2
04:10 64.4 °F 59.1 °F 29.82 in Calm     83% 0.00 in 0 W/m2
04:16 64.3 °F 59.7 °F 29.82 in Calm     85% 0.00 in 0 W/m2
04:22 64.2 °F 59.9 °F 29.82 in Calm     86% 0.00 in 0 W/m2
04:28 64.0 °F 59.4 °F 29.83 in Calm     85% 0.00 in 0 W/m2
04:34 63.7 °F 59.1 °F 29.83 in Calm     85% 0.00 in 0 W/m2
04:40 63.4 °F 58.8 °F 29.83 in Calm     85% 0.00 in 0 W/m2
04:46 63.1 °F 58.5 °F 29.83 in Calm     85% 0.00 in 0 W/m2
04:52 62.9 °F 58.6 °F 29.84 in Calm     86% 0.00 in 0 W/m2
04:58 62.7 °F 58.5 °F 29.84 in Calm     86% 0.00 in 0 W/m2
05:04 62.5 °F 58.3 °F 29.84 in Calm     86% 0.00 in 0 W/m2
05:10 62.3 °F 58.1 °F 29.83 in Calm     86% 0.00 in 0 W/m2
05:16 62.2 °F 58.0 °F 29.84 in Calm     86% 0.00 in 0 W/m2
05:22 62.0 °F 58.1 °F 29.84 in Calm     87% 0.00 in 0 W/m2
05:28 62.0 °F 58.4 °F 29.85 in Calm     88% 0.00 in 0 W/m2
05:34 61.8 °F 58.2 °F 29.84 in Calm     88% 0.00 in 0 W/m2
05:40 62.0 °F 58.7 °F 29.84 in Calm     89% 0.00 in 5 W/m2
05:46 62.1 °F 58.8 °F 29.84 in Calm     89% 0.00 in 5 W/m2
05:52 62.1 °F 58.8 °F 29.84 in Calm     89% 0.00 in 9 W/m2
05:58 62.2 °F 59.2 °F 29.84 in Calm     90% 0.00 in 14 W/m2
06:04 62.1 °F 59.1 °F 29.84 in Calm     90% 0.00 in 14 W/m2
06:10 62.1 °F 59.1 °F 29.84 in Calm     90% 0.00 in 19 W/m2
06:16 62.1 °F 59.1 °F 29.83 in Calm     90% 0.00 in 21 W/m2
06:22 62.2 °F 59.2 °F 29.83 in Calm     90% 0.00 in 30 W/m2
06:28 62.4 °F 59.4 °F 29.83 in Calm     90% 0.00 in 44 W/m2
06:34 62.7 °F 59.7 °F 29.84 in Calm     90% 0.00 in 54 W/m2
06:40 62.9 °F 59.9 °F 29.85 in Calm     90% 0.00 in 62 W/m2
06:46 63.2 °F 60.2 °F 29.85 in Calm     90% 0.00 in 44 W/m2
06:52 63.4 °F 60.4 °F 29.85 in Calm     90% 0.00 in 63 W/m2
06:58 63.7 °F 60.7 °F 29.85 in Calm     90% 0.00 in 74 W/m2
07:06 64.2 °F 60.9 °F 29.85 in Calm     89% 0.00 in 65 W/m2
07:12 64.4 °F 60.8 °F 29.85 in Calm     88% 0.00 in 65 W/m2
07:18 64.7 °F 60.7 °F 29.86 in Calm     87% 0.00 in 83 W/m2
07:24 65.1 °F 60.8 °F 29.86 in Calm     86% 0.00 in 74 W/m2
07:30 65.5 °F 61.2 °F 29.86 in Calm     86% 0.00 in 81 W/m2
07:36 66.0 °F 61.7 °F 29.86 in Calm     86% 0.00 in 83 W/m2
07:42 66.2 °F 60.9 °F 29.86 in Calm     83% 0.00 in 86 W/m2
07:48 66.7 °F 62.0 °F 29.86 in Calm     85% 0.00 in 79 W/m2
07:56 67.0 °F 62.0 °F 29.86 in Calm     84% 0.00 in 127 W/m2
08:02 67.2 °F 60.8 °F 29.86 in Calm     80% 0.00 in 128 W/m2
08:08 67.7 °F 61.0 °F 29.86 in Calm   1.0 mph 79% 0.00 in 146 W/m2
08:14 68.2 °F 61.8 °F 29.86 in Calm     80% 0.00 in 207 W/m2
08:20 68.6 °F 61.1 °F 29.86 in West 1.0 mph 1.0 mph 77% 0.00 in 178 W/m2
08:26 68.9 °F 61.4 °F 29.86 in West 1.0 mph 1.0 mph 77% 0.00 in 269 W/m2
08:32 69.7 °F 61.4 °F 29.86 in Calm     75% 0.00 in 415 W/m2
08:38 70.4 °F 62.5 °F 29.86 in Calm     76% 0.00 in 209 W/m2
08:44 70.5 °F 61.8 °F 29.86 in Calm   1.0 mph 74% 0.00 in 204 W/m2
08:50 70.5 °F 62.2 °F 29.85 in West 1.0 mph 1.0 mph 75% 0.00 in 229 W/m2
08:56 70.7 °F 62.4 °F 29.85 in South 1.0 mph 4.0 mph 75% 0.00 in 223 W/m2
09:02 70.9 °F 62.6 °F 29.85 in SSE 1.0 mph 1.0 mph 75% 0.00 in 183 W/m2
09:08 71.0 °F 62.7 °F 29.85 in SSW 1.0 mph 4.0 mph 75% 0.00 in 211 W/m2
09:14 71.4 °F 62.7 °F 29.85 in SSW 1.0 mph 2.0 mph 74% 0.00 in 244 W/m2
09:20 71.8 °F 62.7 °F 29.85 in Calm     73% 0.00 in 244 W/m2
09:26 72.0 °F 62.9 °F 29.85 in Calm     73% 0.00 in 243 W/m2
09:32 72.2 °F 63.1 °F 29.85 in Calm   2.0 mph 73% 0.00 in 267 W/m2
09:38 72.4 °F 63.3 °F 29.85 in SW 1.0 mph 2.0 mph 73% 0.00 in 227 W/m2
09:44 72.5 °F 63.4 °F 29.85 in Calm     73% 0.00 in 237 W/m2
09:50 72.5 °F 63.4 °F 29.85 in Calm   1.0 mph 73% 0.00 in 223 W/m2
09:56 72.4 °F 63.3 °F 29.85 in SE 1.0 mph 2.0 mph 73% 0.00 in 204 W/m2
10:02 72.4 °F 63.6 °F 29.86 in SW 1.0 mph 5.0 mph 74% 0.00 in 209 W/m2
10:08 72.5 °F 64.1 °F 29.86 in SW 1.0 mph 5.0 mph 75% 0.00 in 174 W/m2
10:14 72.6 °F 64.2 °F 29.86 in Calm   1.0 mph 75% 0.00 in 165 W/m2
10:20 72.6 °F 64.6 °F 29.86 in Calm   2.0 mph 76% 0.00 in 174 W/m2
10:26 72.4 °F 63.3 °F 29.85 in SSW 1.0 mph 4.0 mph 73% 0.00 in 207 W/m2
10:32 72.5 °F 64.1 °F 29.85 in SW 1.0 mph 2.0 mph 75% 0.00 in 255 W/m2
10:38 72.6 °F 63.1 °F 29.85 in SW 1.0 mph 4.0 mph 72% 0.00 in 274 W/m2
10:44 72.7 °F 63.5 °F 29.85 in WSW 2.0 mph 2.0 mph 73% 0.00 in 302 W/m2
10:50 73.1 °F 63.9 °F 29.85 in SW 2.0 mph 2.0 mph 73% 0.00 in 350 W/m2
10:56 73.5 °F 64.3 °F 29.85 in SW 1.0 mph 2.0 mph 73% 0.00 in 401 W/m2
11:02 73.5 °F 63.5 °F 29.84 in WSW 1.0 mph 3.0 mph 71% 0.00 in 308 W/m2
11:08 73.6 °F 63.2 °F 29.84 in WSW 1.0 mph 3.0 mph 70% 0.00 in 301 W/m2
11:14 73.8 °F 63.4 °F 29.85 in WSW 1.0 mph 2.0 mph 70% 0.00 in 290 W/m2
11:20 73.7 °F 62.5 °F 29.85 in WSW 1.0 mph 1.0 mph 68% 0.00 in 250 W/m2
11:26 73.8 °F 63.4 °F 29.84 in WSW 1.0 mph 1.0 mph 70% 0.00 in 204 W/m2
11:32 73.9 °F 63.9 °F 29.84 in Calm     71% 0.00 in 188 W/m2
11:38 73.8 °F 63.4 °F 29.84 in WSW 1.0 mph 1.0 mph 70% 0.00 in 214 W/m2
11:44 73.7 °F 63.7 °F 29.84 in WSW 1.0 mph 1.0 mph 71% 0.00 in 258 W/m2
11:50 73.9 °F 63.9 °F 29.85 in Calm     71% 0.00 in 248 W/m2
11:56 74.1 °F 63.7 °F 29.85 in Calm   2.0 mph 70% 0.00 in 269 W/m2
12:02 74.2 °F 63.4 °F 29.85 in Calm   1.0 mph 69% 0.00 in 230 W/m2
12:08 74.2 °F 64.6 °F 29.84 in Calm   1.0 mph 72% 0.00 in 276 W/m2
12:14 74.4 °F 64.8 °F 29.83 in Calm   1.0 mph 72% 0.00 in 248 W/m2
12:20 74.3 °F 64.3 °F 29.84 in SSW 1.0 mph 1.0 mph 71% 0.00 in 237 W/m2
12:26 74.1 °F 63.3 °F 29.84 in SW 1.0 mph 1.0 mph 69% 0.00 in 236 W/m2
12:32 74.1 °F 63.7 °F 29.85 in SW 1.0 mph 2.0 mph 70% 0.00 in 258 W/m2
12:38 74.1 °F 62.9 °F 29.84 in SW 1.0 mph 2.0 mph 68% 0.00 in 272 W/m2
12:44 74.2 °F 63.8 °F 29.83 in SW 1.0 mph 2.0 mph 70% 0.00 in 297 W/m2
12:50 74.3 °F 63.9 °F 29.83 in SW 1.0 mph 2.0 mph 70% 0.00 in 251 W/m2
12:56 74.4 °F 64.4 °F 29.83 in SSW 1.0 mph 2.0 mph 71% 0.00 in 336 W/m2
13:02 74.4 °F 63.1 °F 29.83 in SW 1.0 mph 2.0 mph 68% 0.00 in 318 W/m2
13:08 74.6 °F 64.2 °F 29.83 in West 1.0 mph 2.0 mph 70% 0.00 in 278 W/m2
13:14 74.7 °F 63.4 °F 29.83 in SW 1.0 mph 3.0 mph 68% 0.00 in 330 W/m2
13:20 74.8 °F 63.5 °F 29.83 in WSW 1.0 mph 1.0 mph 68% 0.00 in 292 W/m2
13:26 75.0 °F 63.7 °F 29.83 in SW 1.0 mph 3.0 mph 68% 0.00 in 244 W/m2
13:32 75.1 °F 64.2 °F 29.82 in WSW 1.0 mph 1.0 mph 69% 0.00 in 313 W/m2
13:38 75.4 °F 64.1 °F 29.82 in Calm   1.0 mph 68% 0.00 in 330 W/m2
13:44 75.3 °F 64.4 °F 29.82 in Calm   1.0 mph 69% 0.00 in 422 W/m2
13:57 76.3 °F 65.0 °F 29.82 in Calm     68% 0.00 in 478 W/m2
14:03 76.5 °F 63.4 °F 29.81 in Calm     64% 0.00 in 454 W/m2
14:09 76.8 °F 64.6 °F 29.81 in Calm     66% 0.00 in 522 W/m2
14:15 76.9 °F 62.4 °F 29.81 in Calm     61% 0.00 in 476 W/m2
14:21 76.6 °F 62.1 °F 29.80 in Calm     61% 0.00 in 378 W/m2
14:28 76.7 °F 62.7 °F 29.81 in Calm     62% 0.00 in 350 W/m2
14:33 76.6 °F 62.1 °F 29.80 in Calm   2.0 mph 61% 0.00 in 427 W/m2
14:39 76.8 °F 63.2 °F 29.80 in WSW 1.0 mph 2.0 mph 63% 0.00 in 381 W/m2
14:45 76.9 °F 63.3 °F 29.80 in Calm   2.0 mph 63% 0.00 in 294 W/m2
14:51 76.5 °F 61.6 °F 29.80 in Calm     60% 0.00 in 223 W/m2
14:58 76.4 °F 62.9 °F 29.80 in Calm     63% 0.00 in 199 W/m2
15:03 76.3 °F 63.7 °F 29.81 in Calm     65% 0.00 in 169 W/m2
15:09 76.2 °F 64.4 °F 29.81 in Calm     67% 0.00 in 153 W/m2
15:15 75.9 °F 64.6 °F 29.81 in Calm   2.0 mph 68% 0.00 in 153 W/m2
15:22 75.4 °F 64.5 °F 29.80 in NNW 1.0 mph 3.0 mph 69% 0.00 in 123 W/m2
15:28 75.0 °F 64.1 °F 29.80 in NNW 1.0 mph 3.0 mph 69% 0.00 in 130 W/m2
15:33 74.7 °F 64.7 °F 29.80 in Calm   1.0 mph 71% 0.00 in 139 W/m2
15:39 74.5 °F 64.9 °F 29.80 in Calm     72% 0.00 in 144 W/m2
15:45 74.4 °F 65.2 °F 29.80 in Calm     73% 0.00 in 156 W/m2
15:52 74.4 °F 65.6 °F 29.79 in Calm     74% 0.00 in 188 W/m2
15:58 74.3 °F 65.5 °F 29.79 in Calm   2.0 mph 74% 0.00 in 223 W/m2
16:03 74.1 °F 65.7 °F 29.79 in NNW 1.0 mph 2.0 mph 75% 0.00 in 230 W/m2
16:09 74.1 °F 66.0 °F 29.78 in North 1.0 mph 2.0 mph 76% 0.00 in 200 W/m2
16:15 74.0 °F 65.6 °F 29.79 in North 1.0 mph 4.0 mph 75% 0.00 in 202 W/m2
16:22 74.1 °F 65.3 °F 29.78 in North 1.0 mph 1.0 mph 74% 0.00 in 232 W/m2
16:28 73.9 °F 65.5 °F 29.78 in North 1.0 mph 1.0 mph 75% 0.00 in 232 W/m2
16:33 73.9 °F 65.5 °F 29.78 in NNE 1.0 mph 3.0 mph 75% 0.00 in 229 W/m2
16:39 74.1 °F 66.0 °F 29.77 in NNE 2.0 mph 3.0 mph 76% 0.00 in 207 W/m2
16:45 74.1 °F 66.0 °F 29.77 in NNE 2.0 mph 3.0 mph 76% 0.00 in 188 W/m2
16:52 73.8 °F 65.8 °F 29.77 in NNE 1.0 mph 3.0 mph 76% 0.00 in 190 W/m2
16:58 73.5 °F 65.1 °F 29.77 in NNE 1.0 mph 3.0 mph 75% 0.00 in 158 W/m2
17:03 73.3 °F 65.3 °F 29.76 in NNE 1.0 mph 2.0 mph 76% 0.00 in 123 W/m2
17:09 73.2 °F 65.2 °F 29.76 in NNE 1.0 mph 1.0 mph 76% 0.00 in 120 W/m2
17:15 73.2 °F 65.6 °F 29.76 in Calm   1.0 mph 77% 0.00 in 113 W/m2
17:22 73.1 °F 65.5 °F 29.76 in NNE 1.0 mph 2.0 mph 77% 0.00 in 130 W/m2
17:28 73.2 °F 65.9 °F 29.76 in NNE 1.0 mph 2.0 mph 78% 0.00 in 149 W/m2
17:33 73.1 °F 65.8 °F 29.75 in NE 1.0 mph 2.0 mph 78% 0.00 in 148 W/m2
17:39 73.1 °F 65.8 °F 29.75 in NNE 1.0 mph 1.0 mph 78% 0.00 in 192 W/m2
17:45 73.1 °F 66.2 °F 29.75 in NE 1.0 mph 5.0 mph 79% 0.00 in 190 W/m2
17:51 73.1 °F 66.2 °F 29.75 in NE 2.0 mph 3.0 mph 79% 0.00 in 188 W/m2
17:58 73.2 °F 65.9 °F 29.74 in ENE 2.0 mph 3.0 mph 78% 0.00 in 178 W/m2
18:05 73.2 °F 66.7 °F 29.75 in ENE 2.0 mph 3.0 mph 80% 0.00 in 209 W/m2
18:12 73.4 °F 65.4 °F 29.75 in SSE 1.0 mph 2.0 mph 76% 0.00 in 163 W/m2
18:18 73.5 °F 65.1 °F 29.75 in SE 1.0 mph 3.0 mph 75% 0.00 in 142 W/m2
18:23 73.4 °F 65.0 °F 29.75 in East 2.0 mph 2.0 mph 75% 0.00 in 137 W/m2
18:29 73.4 °F 64.2 °F 29.75 in East 1.0 mph 1.0 mph 73% 0.00 in 121 W/m2
18:35 73.5 °F 64.3 °F 29.75 in East 1.0 mph 2.0 mph 73% 0.00 in 120 W/m2
18:41 73.5 °F 65.1 °F 29.74 in East 1.0 mph 1.0 mph 75% 0.00 in 105 W/m2
18:48 73.4 °F 65.0 °F 29.74 in East 1.0 mph 1.0 mph 75% 0.00 in 107 W/m2
18:53 73.3 °F 64.9 °F 29.74 in ENE 2.0 mph 3.0 mph 75% 0.00 in 91 W/m2
18:59 73.1 °F 64.7 °F 29.74 in ENE 1.0 mph 2.0 mph 75% 0.00 in 104 W/m2
19:05 73.1 °F 64.7 °F 29.74 in ENE 1.0 mph 2.0 mph 75% 0.00 in 104 W/m2
19:12 73.2 °F 64.4 °F 29.74 in NE 2.0 mph 4.0 mph 74% 0.00 in 100 W/m2
19:18 73.2 °F 64.4 °F 29.74 in NE 2.0 mph 4.0 mph 74% 0.00 in 72 W/m2
19:23 73.1 °F 63.9 °F 29.74 in NE 1.0 mph 2.0 mph 73% 0.00 in 33 W/m2
19:29 72.8 °F 64.0 °F 29.75 in NE 1.0 mph 1.0 mph 74% 0.00 in 30 W/m2
19:35 72.5 °F 64.1 °F 29.74 in Calm   1.0 mph 75% 0.00 in 35 W/m2
19:42 72.3 °F 65.1 °F 29.74 in Calm     78% 0.00 in 33 W/m2
19:48 71.9 °F 64.3 °F 29.74 in Calm     77% 0.00 in 30 W/m2
19:53 71.7 °F 64.1 °F 29.74 in Calm     77% 0.00 in 19 W/m2
19:59 71.5 °F 64.3 °F 29.74 in Calm     78% 0.00 in 19 W/m2
20:05 71.0 °F 64.2 °F 29.74 in Calm     79% 0.00 in 25 W/m2
20:12 70.8 °F 63.6 °F 29.75 in Calm     78% 0.00 in 16 W/m2
20:18 70.6 °F 63.8 °F 29.75 in Calm     79% 0.00 in 12 W/m2
20:23 70.5 °F 64.0 °F 29.75 in NE 1.0 mph 2.0 mph 80% 0.00 in 11 W/m2
20:29 70.0 °F 63.9 °F 29.75 in NE 1.0 mph 1.0 mph 81% 0.00 in 7 W/m2
20:35 69.8 °F 63.3 °F 29.75 in Calm   1.0 mph 80% 0.00 in 0 W/m2
20:41 69.4 °F 63.3 °F 29.75 in Calm     81% 0.00 in 0 W/m2
20:48 69.2 °F 63.5 °F 29.75 in Calm     82% 0.00 in 0 W/m2
20:53 68.9 °F 63.2 °F 29.75 in Calm     82% 0.00 in 0 W/m2
20:59 68.6 °F 63.6 °F 29.75 in Calm     84% 0.00 in 0 W/m2
21:05 68.2 °F 63.2 °F 29.75 in Calm     84% 0.00 in 0 W/m2
21:12 68.1 °F 63.4 °F 29.75 in Calm     85% 0.00 in 0 W/m2
21:18 67.9 °F 63.2 °F 29.75 in Calm     85% 0.00 in 0 W/m2
21:23 67.8 °F 63.1 °F 29.75 in Calm     85% 0.00 in 0 W/m2
21:29 67.7 °F 63.4 °F 29.76 in Calm     86% 0.00 in 0 W/m2
21:35 67.6 °F 63.3 °F 29.76 in Calm     86% 0.00 in 0 W/m2
21:42 67.6 °F 63.3 °F 29.76 in Calm     86% 0.00 in 0 W/m2
21:48 67.4 °F 63.1 °F 29.77 in Calm     86% 0.00 in 0 W/m2
21:53 67.3 °F 63.0 °F 29.77 in Calm     86% 0.00 in 0 W/m2
21:59 67.2 °F 63.2 °F 29.77 in Calm     87% 0.00 in 0 W/m2
22:05 67.1 °F 63.1 °F 29.77 in Calm     87% 0.00 in 0 W/m2
22:12 67.0 °F 63.0 °F 29.77 in Calm     87% 0.00 in 0 W/m2
22:18 66.8 °F 62.8 °F 29.77 in Calm     87% 0.00 in 0 W/m2
22:23 66.8 °F 63.1 °F 29.77 in Calm     88% 0.00 in 0 W/m2
22:29 66.7 °F 63.0 °F 29.77 in Calm     88% 0.00 in 0 W/m2
22:35 66.6 °F 62.9 °F 29.77 in Calm     88% 0.00 in 0 W/m2
22:41 66.6 °F 62.9 °F 29.77 in Calm     88% 0.00 in 0 W/m2
22:48 66.4 °F 63.1 °F 29.76 in Calm     89% 0.00 in 0 W/m2
22:53 66.2 °F 62.9 °F 29.76 in Calm     89% 0.00 in 0 W/m2
22:59 65.9 °F 62.6 °F 29.76 in Calm     89% 0.00 in 0 W/m2
23:05 65.6 °F 62.3 °F 29.76 in Calm     89% 0.00 in 0 W/m2
23:12 65.5 °F 62.2 °F 29.76 in Calm     89% 0.00 in 0 W/m2
23:18 65.3 °F 62.3 °F 29.76 in Calm     90% 0.00 in 0 W/m2
23:23 65.2 °F 62.2 °F 29.75 in Calm     90% 0.00 in 0 W/m2
23:29 65.0 °F 62.0 °F 29.76 in Calm     90% 0.00 in 0 W/m2
23:35 64.8 °F 61.8 °F 29.76 in Calm     90% 0.00 in 0 W/m2
23:42 64.7 °F 62.0 °F 29.76 in Calm     91% 0.00 in 0 W/m2
23:48 64.5 °F 61.8 °F 29.75 in Calm     91% 0.00 in 0 W/m2
23:53 64.4 °F 61.7 °F 29.75 in Calm     91% 0.00 in 0 W/m2
23:59 64.3 °F 61.6 °F 29.75 in Calm     91% 0.00 in 0 W/m2
Country Meadow, Clay, NY, USA
Compliments of Weather Underground - 2 mb